Latest Weather Observations for Meekatharra

IDW60801

Issued at 8:35 am WST Thursday 24 April 2014 (issued every 30 minutes, with the page automatically refreshed every 10 minutes)

About weather observations | Map of weather stations | Latest weather observations for WA | Other Formats
Station Details ID: 007045 Name: MEEKATHARRA AIRPORT Lat: -26.61 Lon: 118.54 Height: 517.0 m
Data from the previous 72 hours. | See also: Recent months at Meekatharra
Date/Time
WST
Temp
°C
App
Temp
°C
Dew
Point
Rel
Hum
%
Delta-T
°C
Wind Press
QNH
hPa
Press
MSL
hPa
Rain
since 9 am
mm
Dir
 
Spd
km/h
Gust
km/h
Spd
kts
Gust
kts
24/08:30am 26.5 23.6 4.8 25 11.3 NNW 9 11 5 6 1013.6 - 0.0
24/08:00am 25.4 22.4 4.3 25 10.8 NNW 9 13 5 7 1013.7 - 0.0
24/07:30am 24.3 21.4 4.5 27 10.1 NNW 9 13 5 7 1013.2 - 0.0
24/07:00am 23.3 20.9 5.2 31 9.3 W 7 9 4 5 1012.9 - 0.0
24/06:30am 23.3 20.8 4.9 30 9.4 W 7 9 4 5 1012.8 - 0.0
24/06:00am 23.3 20.9 5.2 31 9.3 W 7 9 4 5 1012.5 1009.8 0.0
24/05:30am 23.2 20.3 4.8 30 9.4 W 9 9 5 5 1012.3 - 0.0
24/05:00am 23.1 20.2 4.9 30 9.3 W 9 9 5 5 1012.2 - 0.0
24/04:30am 22.6 20.6 6.4 35 8.5 W 6 7 3 4 1012.1 - 0.0
24/04:00am 22.9 22.2 6.8 35 8.5 CALM 0 0 0 0 1012.1 - 0.0
24/03:30am 23.3 23.0 8.5 38 8.1 CALM 0 0 0 0 1012.0 - 0.0
24/03:00am 23.5 22.7 6.7 34 8.9 CALM 0 4 0 2 1012.2 1009.4 0.0
24/02:30am 24.5 22.6 7.7 34 9.1 W 7 7 4 4 1012.2 - 0.0
24/02:00am 24.1 21.9 5.4 30 9.7 W 6 7 3 4 1012.4 - 0.0
24/01:30am 25.1 22.4 5.6 28 10.2 W 9 11 5 6 1012.7 - 0.0
24/01:00am 24.7 23.1 8.0 34 9.1 W 6 7 3 4 1012.9 - 0.0
24/12:30am 25.6 23.4 6.2 29 10.3 W 7 9 4 5 1013.1 - 0.0
24/12:00am 25.7 23.5 6.1 28 10.4 W 7 9 4 5 1013.2 1010.5 0.0
 
Date/Time
WST
Temp
°C
App
Temp
°C
Dew
Point
Rel
Hum
%
Delta-T
°C
Wind Press
QNH
hPa
Press
MSL
hPa
Rain
since 9 am
mm
Dir
 
Spd
km/h
Gust
km/h
Spd
kts
Gust
kts
23/11:30pm 25.8 23.6 6.0 28 10.5 W 7 7 4 4 1013.5 - 0.0
23/11:00pm 26.5 24.4 6.6 28 10.7 W 7 11 4 6 1013.6 - 0.0
23/10:30pm 27.4 23.6 3.9 22 12.1 W 13 17 7 9 1013.8 - 0.0
23/10:00pm 27.4 23.9 3.6 21 12.2 W 11 17 6 9 1014.1 - 0.0
23/09:30pm 27.4 24.2 2.9 20 12.4 W 9 11 5 6 1014.1 - 0.0
23/09:00pm 27.9 24.9 4.2 22 12.3 W 9 13 5 7 1014.5 1011.8 0.0
23/08:30pm 28.3 25.5 5.0 22 12.3 W 9 13 5 7 1014.5 - 0.0
23/08:00pm 28.2 25.5 5.4 23 12.1 WNW 9 13 5 7 1014.4 - 0.0
23/07:30pm 28.4 26.2 6.4 25 11.9 W 7 11 4 6 1014.2 - 0.0
23/07:11pm 29.0 26.8 6.3 23 12.3 W 7 9 4 5 1013.9 - 0.0
23/07:00pm 29.3 26.7 5.9 22 12.6 W 9 11 5 6 1013.9 - 0.0
23/06:57pm 29.3 26.5 5.3 22 12.8 W 9 11 5 6 1013.9 - 0.0
23/06:30pm 29.4 26.9 6.7 24 12.4 W 9 11 5 6 1013.6 - 0.0
23/06:00pm 30.0 27.6 5.4 21 13.2 W 7 11 4 6 1013.2 1010.5 0.0
23/05:30pm 31.0 26.7 3.4 17 14.4 WNW 15 20 8 11 1012.8 - 0.0
23/05:00pm 31.7 26.6 2.8 16 15.0 WNW 19 24 10 13 1012.6 - 0.0
23/04:30pm 32.0 26.6 2.7 15 15.2 WNW 20 28 11 15 1012.4 - 0.0
23/04:00pm 32.4 26.3 2.5 15 15.5 WNW 24 33 13 18 1012.3 - 0.0
23/03:30pm 33.0 27.1 1.6 13 16.1 WNW 22 33 12 18 1012.1 - 0.0
23/03:00pm 33.9 28.3 1.4 13 16.7 NNW 20 30 11 16 1012.0 1009.2 0.0
23/02:30pm 33.4 28.2 2.2 14 16.2 WNW 19 33 10 18 1012.0 - 0.0
23/02:00pm 34.4 29.4 1.5 12 17.0 NNW 17 24 9 13 1012.1 - 0.0
23/01:30pm 33.2 29.6 2.9 15 15.9 NW 11 19 6 10 1012.2 - 0.0
23/01:00pm 33.5 29.4 2.4 14 16.2 NW 13 20 7 11 1012.6 - 0.0
23/12:30pm 33.1 29.4 2.2 14 16.0 NNW 11 22 6 12 1013.1 - 0.0
23/12:00pm 32.3 29.4 4.8 17 14.8 NW 9 15 5 8 1013.5 1010.8 0.0
23/11:30am 31.5 28.3 3.1 16 14.8 N 9 17 5 9 1013.9 - 0.0
23/11:00am 30.7 27.2 3.5 17 14.2 N 11 17 6 9 1014.3 - 0.0
23/10:30am 29.7 25.7 3.1 18 13.7 N 13 20 7 11 1014.6 - 0.0
23/10:00am 28.4 24.2 3.9 21 12.7 N 15 20 8 11 1014.8 - 0.0
23/09:30am 27.6 23.7 3.6 21 12.3 NNE 13 19 7 10 1014.9 - 0.0
23/09:00am 26.3 22.3 4.7 25 11.2 NE 15 20 8 11 1015.0 1012.3 0.0
23/08:30am 24.6 19.8 4.4 27 10.3 NE 19 28 10 15 1015.0 - 0.0
23/08:00am 22.7 19.0 6.5 35 8.5 NE 15 20 8 11 1014.8 - 0.0
23/07:30am 21.0 18.0 7.8 42 7.0 NE 13 17 7 9 1014.7 - 0.0
23/07:00am 19.8 17.0 8.4 47 6.1 ENE 13 17 7 9 1014.5 - 0.0
23/06:30am 19.5 16.2 8.2 48 6.0 ENE 15 20 8 11 1014.3 - 0.0
23/06:00am 19.7 16.4 8.2 47 6.1 ENE 15 20 8 11 1014.3 1011.6 0.0
23/05:30am 19.4 16.5 8.1 48 6.0 ENE 13 19 7 10 1014.2 - 0.0
23/05:00am 19.3 16.4 8.2 48 5.9 ENE 13 15 7 8 1014.3 - 0.0
23/04:30am 19.8 16.9 8.1 46 6.2 E 13 17 7 9 1014.2 - 0.0
23/04:00am 19.5 17.0 8.4 48 5.9 E 11 13 6 7 1014.1 - 0.0
23/03:30am 20.3 17.4 8.3 46 6.4 E 13 17 7 9 1014.1 - 0.0
23/03:00am 20.7 17.8 8.2 44 6.7 E 13 17 7 9 1014.2 1011.5 0.0
23/02:30am 21.3 18.4 8.3 43 7.0 E 13 17 7 9 1014.2 - 0.0
23/02:00am 21.8 18.5 8.2 41 7.3 E 15 19 8 10 1014.2 - 0.0
23/01:30am 22.1 18.8 8.2 41 7.5 E 15 20 8 11 1014.6 - 0.0
23/01:00am 22.5 18.9 8.3 40 7.7 E 17 20 9 11 1014.7 - 0.0
23/12:30am 22.6 19.0 8.4 40 7.7 E 17 20 9 11 1015.0 - 0.0
23/12:00am 23.1 19.4 7.9 37 8.2 E 17 24 9 13 1015.2 1012.5 0.0
 
Date/Time
WST
Temp
°C
App
Temp
°C
Dew
Point
Rel
Hum
%
Delta-T
°C
Wind Press
QNH
hPa
Press
MSL
hPa
Rain
since 9 am
mm
Dir
 
Spd
km/h
Gust
km/h
Spd
kts
Gust
kts
22/11:30pm 23.6 19.3 6.8 34 8.9 E 19 24 10 13 1015.3 - 0.0
22/11:00pm 23.5 19.8 6.1 32 9.1 ESE 15 20 8 11 1015.4 - 0.0
22/10:30pm 24.5 20.2 5.2 28 10.0 E 17 20 9 11 1015.5 - 0.0
22/10:00pm 24.9 21.1 5.6 29 10.1 ESE 15 19 8 10 1015.7 - 0.0
22/09:30pm 25.6 21.8 5.6 27 10.5 ESE 15 20 8 11 1015.4 - 0.0
22/09:00pm 26.5 22.2 5.1 25 11.2 ESE 17 22 9 12 1015.4 1012.7 0.0
22/08:30pm 27.0 22.6 4.7 24 11.6 SE 17 20 9 11 1015.6 - 0.0
22/08:00pm 26.1 22.4 4.7 25 11.1 S 13 19 7 10 1015.5 - 0.0
22/07:57pm 26.0 22.4 4.8 25 11.0 S 13 19 7 10 1015.5 - 0.0
22/07:44pm 26.2 23.5 3.9 23 11.4 W 7 9 4 5 1015.4 - 0.0
22/07:30pm 27.0 24.2 5.1 24 11.5 W 9 9 5 5 1015.3 - 0.0
22/07:00pm 27.1 25.1 7.3 28 10.8 W 7 7 4 4 1015.2 - 0.0
22/06:30pm 28.7 26.8 6.6 24 12.0 W 6 7 3 4 1015.1 - 0.0
22/06:00pm 29.8 28.0 5.3 21 13.1 W 4 9 2 5 1014.7 1012.0 0.0
22/05:30pm 31.0 28.6 5.1 19 13.9 W 7 9 4 5 1014.6 - 0.0
22/05:00pm 31.4 28.0 3.9 17 14.5 NW 11 17 6 9 1014.4 - 0.0
22/04:30pm 32.7 28.7 2.8 15 15.6 N 13 20 7 11 1014.4 - 0.0
22/04:00pm 32.4 29.2 3.2 16 15.3 NNW 9 19 5 10 1014.4 - 0.0
22/03:30pm 32.9 29.7 3.3 15 15.6 NE 9 20 5 11 1014.4 - 0.0
22/03:00pm 32.0 29.5 4.8 18 14.6 NNE 7 19 4 10 1014.6 1011.9 0.0
22/02:30pm 32.2 28.2 2.8 15 15.3 N 13 19 7 10 1014.7 - 0.0
22/02:00pm 31.6 29.0 6.3 20 13.9 NNE 9 20 5 11 1014.9 - 0.0
22/01:30pm 31.6 27.0 3.6 17 14.7 ENE 17 26 9 14 1015.0 - 0.0
22/01:00pm 31.4 27.5 5.2 19 14.1 ENE 15 20 8 11 1015.6 - 0.0
22/12:30pm 31.1 27.3 5.6 20 13.8 ENE 15 24 8 13 1016.1 - 0.0
22/12:00pm 30.8 26.9 5.3 20 13.7 NE 15 24 8 13 1016.7 1014.0 0.0
22/11:30am 29.3 25.3 6.5 23 12.4 ENE 17 26 9 14 1017.0 - 0.0
22/11:00am 28.1 24.4 7.8 27 11.2 ENE 17 24 9 13 1017.5 - 0.0
22/10:30am 27.2 23.6 8.2 30 10.5 ENE 17 24 9 13 1017.8 - 0.0
22/10:00am 25.7 21.6 8.7 34 9.4 ENE 20 30 11 16 1018.4 - 0.0
22/09:30am 24.1 19.7 8.8 37 8.4 ENE 22 33 12 18 1018.3 - 0.0
22/09:00am 23.6 18.9 9.1 39 8.0 ENE 24 33 13 18 1018.4 1015.7 0.0
22/08:30am 21.6 16.2 9.4 45 6.7 ENE 28 37 15 20 1018.4 - 0.0
22/08:00am 20.4 16.5 9.6 50 5.9 ENE 20 32 11 17 1018.4 - 0.0
22/07:30am 19.1 15.5 9.7 54 5.1 E 19 24 10 13 1018.2 - 0.0
22/07:00am 18.2 15.3 9.7 57 4.6 E 15 20 8 11 1017.9 - 0.0
22/06:30am 18.1 14.8 9.6 57 4.6 E 17 24 9 13 1017.7 - 0.0
22/06:00am 18.2 14.5 9.5 57 4.7 E 19 22 10 12 1017.4 1014.7 0.0
22/05:30am 18.4 15.0 9.3 55 4.9 E 17 20 9 11 1017.2 - 0.0
22/05:00am 18.6 15.2 9.1 54 5.1 E 17 24 9 13 1017.1 - 0.0
22/04:30am 19.1 15.2 8.6 50 5.6 E 19 24 10 13 1016.7 - 0.0
22/04:00am 19.4 15.4 8.3 48 5.9 E 19 26 10 14 1016.6 - 0.0
22/03:30am 19.6 16.0 8.3 48 6.0 E 17 24 9 13 1016.5 - 0.0
22/03:00am 20.1 16.0 8.0 45 6.4 E 19 24 10 13 1016.4 1013.7 0.0
22/02:30am 20.3 16.6 7.8 44 6.6 ESE 17 24 9 13 1016.5 - 0.0
22/02:00am 20.6 16.9 7.8 43 6.8 E 17 24 9 13 1016.6 - 0.0
22/01:30am 20.4 17.3 7.2 42 6.9 ESE 13 19 7 10 1016.5 - 0.0
22/01:00am 21.0 17.0 6.8 39 7.4 E 17 22 9 12 1016.6 - 0.0
22/12:30am 21.6 17.5 6.1 36 8.0 ESE 17 24 9 13 1016.9 - 0.0
22/12:00am 21.7 18.3 6.0 36 8.1 SE 13 20 7 11 1016.9 1014.2 0.0
 
Date/Time
WST
Temp
°C
App
Temp
°C
Dew
Point
Rel
Hum
%
Delta-T
°C
Wind Press
QNH
hPa
Press
MSL
hPa
Rain
since 9 am
mm
Dir
 
Spd
km/h
Gust
km/h
Spd
kts
Gust
kts
21/11:30pm 21.0 18.6 6.8 39 7.4 SSE 9 13 5 7 1016.9 - 0.0
21/11:00pm 21.0 18.2 6.8 39 7.4 S 11 13 6 7 1016.9 - 0.0
21/10:30pm 21.7 18.6 5.4 34 8.3 S 11 13 6 7 1017.1 - 0.0
21/10:00pm 22.5 19.9 5.9 34 8.6 S 9 11 5 6 1017.1 - 0.0
21/09:30pm 22.8 20.2 6.1 34 8.7 S 9 11 5 6 1017.1 - 0.0
21/09:00pm 23.4 20.8 6.2 33 9.0 S 9 11 5 6 1017.1 1014.4 0.0
21/08:30pm 24.6 22.0 5.9 30 9.8 S 9 11 5 6 1017.1 - 0.0
21/08:00pm 25.9 22.7 5.2 26 10.8 SSW 11 15 6 8 1016.7 - 0.0
21/07:30pm 26.1 22.5 3.0 22 11.6 SSW 11 13 6 7 1016.6 - 0.0
21/07:00pm 27.0 24.4 6.0 26 11.2 W 9 11 5 6 1015.9 - 0.0
21/06:30pm 27.6 24.3 4.6 23 12.0 W 11 15 6 8 1015.7 - 0.0
21/06:00pm 28.4 24.7 4.5 21 12.5 W 13 15 7 8 1015.2 1012.5 0.0
21/05:30pm 28.9 25.1 3.9 20 13.0 W 13 20 7 11 1015.1 - 0.0
21/05:00pm 29.6 26.4 4.9 21 13.1 W 11 20 6 11 1014.8 - 0.0
21/04:30pm 30.1 25.9 3.9 19 13.7 W 15 22 8 12 1014.8 - 0.0
21/04:00pm 29.8 25.3 4.0 19 13.5 W 17 28 9 15 1014.9 - 0.0
21/03:30pm 30.5 25.7 4.4 19 13.8 W 19 30 10 16 1014.8 - 0.0
21/03:00pm 30.2 24.1 2.7 17 14.1 WSW 24 35 13 19 1014.6 1011.9 0.0
21/02:30pm 30.6 26.3 5.3 20 13.6 WNW 17 26 9 14 1014.6 - 0.0
21/02:00pm 30.2 25.9 3.5 18 13.9 WSW 15 28 8 15 1014.7 - 0.0
21/01:30pm 30.0 26.0 5.1 20 13.3 W 15 20 8 11 1014.8 - 0.0
21/01:00pm 30.0 26.6 5.7 21 13.1 W 13 17 7 9 1015.0 - 0.0
21/12:30pm 28.8 24.6 5.9 23 12.3 W 17 24 9 13 1015.5 - 0.0
21/12:00pm 28.2 25.2 6.0 24 11.9 W 11 20 6 11 1015.8 1013.1 0.0
21/11:30am 27.0 24.4 7.6 29 10.6 NNW 11 15 6 8 1016.2 - 0.0
21/11:00am 25.9 24.4 9.0 34 9.4 WNW 7 13 4 7 1016.6 - 0.0
21/10:30am 25.2 23.8 9.5 37 8.8 NE 7 11 4 6 1017.0 - 0.0
21/10:00am 23.8 21.5 9.1 39 8.1 NE 11 13 6 7 1017.1 - 0.0
21/09:30am 22.3 20.0 8.9 42 7.3 E 11 19 6 10 1017.3 - 0.0
21/09:00am 21.1 18.9 9.2 46 6.5 E 11 17 6 9 1017.1 1014.4 0.0

Other Formats:

Comma delimited format used in spreadsheet applications
http://www.bom.gov.au/fwo/IDW60801/IDW60801.94430.axf

JavaScript Object Notation format (JSON) in row-major order
http://www.bom.gov.au/fwo/IDW60801/IDW60801.94430.json